Highspeed 7 — SYDM — position and weather

sailwx.info

Track history (hours):
 
Tides and Currents Weather Stations Pressure Air Temp Water Temp Dewpoint Dewpoint Depression Visibility Wind Speed Wind Dir Waves Ship Positions

Highspeed 7

Last reported at 2017-May-23 12:40 UTC. Time now 2017-May-23 17:05 UTC.
Position N 37°03' E 025°02'.

Length 87 m; draft 3.5 m.

Type: Ship. MMSI: 240348000.

Date/timePositionNaut miles runAvg speedWind from/ knotsBaromVisibWave heightAir tempDewpointWater temp
2017-May-23 12:40N 37°03' E 025°02'515.7
2017-May-23 12:19N 37°05' E 025°08'930.1
2017-May-23 12:01N 37°14' E 025°12'1529.7
2017-May-23 11:30N 37°28' E 025°19'817.2
2017-May-23 11:01N 37°20' E 025°16'1622.2
2017-May-23 10:18N 37°05' E 025°08'5 0.3
2017-May-22 13:11N 37°03' E 025°02'512.6
2017-May-22 12:45N 37°05' E 025°08'727.3
2017-May-22 12:31N 37°12' E 025°10'1835.2
2017-May-22 12:01N 37°28' E 025°19'612.5
2017-May-22 11:30N 37°22' E 025°17'1835.5
2017-May-22 11:00N 37°06' E 025°07'1 1.3
2017-May-22 10:25N 37°06' E 025°07'5 0.1
2017-May-20 13:26N 37°03' E 025°02'510.9
2017-May-20 12:58N 37°06' E 025°08'1737.3
2017-May-20 12:31N 37°21' E 025°16'713.9
2017-May-20 12:01N 37°28' E 025°19'1428.1
2017-May-20 11:31N 37°15' E 025°12'1018.5
2017-May-20 10:57N 37°05' E 025°08'  
2017-May-17 12:41N 37°03' E 025°02'614.2
2017-May-17 12:17N 37°05' E 025°08'829.0
2017-May-17 12:01N 37°13' E 025°11'1632.0
2017-May-17 11:30N 37°28' E 025°19'611.1
2017-May-17 11:01N 37°22' E 025°17'1921.9
2017-May-17 10:10N 37°05' E 025°08'321.2
2017-May-17 10:01N 37°06' E 025°05'  
Track history (hours):
 
Tides and Currents Weather Stations Pressure Air Temp Water Temp Dewpoint Dewpoint Depression Visibility Wind Speed Wind Dir Waves Ship Positions

Highspeed 7

Last reported at 2017-May-23 12:40 UTC. Time now 2017-May-23 17:05 UTC.
Position N 37°03' E 025°02'.

Length 87 m; draft 3.5 m.

Type: Ship. MMSI: 240348000.

Date/timePositionNaut miles runAvg speedWind from/ knotsBaromVisibWave heightAir tempDewpointWater temp
2017-May-23 12:40N 37°03' E 025°02'515.7
2017-May-23 12:19N 37°05' E 025°08'930.1
2017-May-23 12:01N 37°14' E 025°12'1529.7
2017-May-23 11:30N 37°28' E 025°19'817.2
2017-May-23 11:01N 37°20' E 025°16'1622.2
2017-May-23 10:18N 37°05' E 025°08'5 0.3
2017-May-22 13:11N 37°03' E 025°02'512.6
2017-May-22 12:45N 37°05' E 025°08'727.3
2017-May-22 12:31N 37°12' E 025°10'1835.2
2017-May-22 12:01N 37°28' E 025°19'612.5
2017-May-22 11:30N 37°22' E 025°17'1835.5
2017-May-22 11:00N 37°06' E 025°07'1 1.3
2017-May-22 10:25N 37°06' E 025°07'5 0.1
2017-May-20 13:26N 37°03' E 025°02'510.9
2017-May-20 12:58N 37°06' E 025°08'1737.3
2017-May-20 12:31N 37°21' E 025°16'713.9
2017-May-20 12:01N 37°28' E 025°19'1428.1
2017-May-20 11:31N 37°15' E 025°12'1018.5
2017-May-20 10:57N 37°05' E 025°08'  
2017-May-17 12:41N 37°03' E 025°02'614.2
2017-May-17 12:17N 37°05' E 025°08'829.0
2017-May-17 12:01N 37°13' E 025°11'1632.0
2017-May-17 11:30N 37°28' E 025°19'611.1
2017-May-17 11:01N 37°22' E 025°17'1921.9
2017-May-17 10:10N 37°05' E 025°08'321.2
2017-May-17 10:01N 37°06' E 025°05'  

Dump ship's entire track history